Indialantic, Florida
Current Conditions -  °F | °C
As of 5:53 AM on Friday 24 Oct 2014 (Local Time) from KMLB Reporting Station
Scattered Clouds Scattered Clouds  
Wind Chill: 73°   Ceiling: Unl
Heat Index: 73°   Visibility: 10mi
Dew Point: 58°   Wind: 8mph
Humidity: 59%   Direction: 40°NE
Pressure: 29.93"   Gusts: NA
Location:  28.09°N, 80.57°W
Report Text: KMLB 240953Z AUTO 04007KT 10SM SCT042 23/14 A2993 RMK AO2 SLP134 T02280144
Loading
Personal Weather Stations






























Interactive Weather Map New forecast layout! Learn more

10-Day Weather Forecast

Advertisements
Track Severe Weather on mobile